createdAt,value
2022-09-12T03:01:52.418Z,13.4
2022-09-12T03:04:07.706Z,12.7
2022-09-12T03:06:22.927Z,13
2022-09-12T03:08:38.206Z,12.6
2022-09-12T03:10:53.433Z,12.8
2022-09-12T03:13:08.484Z,13.4
2022-09-12T03:15:24.004Z,13.9
2022-09-12T03:17:39.052Z,12.8
2022-09-12T03:19:54.274Z,13.2
2022-09-12T03:22:09.434Z,12.4
2022-09-12T03:24:24.399Z,11.9
2022-09-12T03:26:39.653Z,13.9
2022-09-12T03:28:54.894Z,13.3
2022-09-12T03:31:10.123Z,13.3
2022-09-12T03:33:25.303Z,13.4
2022-09-12T03:35:40.532Z,12.3
2022-09-12T03:37:55.832Z,12.8
2022-09-12T03:40:10.773Z,12.8
2022-09-12T03:42:25.645Z,11.1
2022-09-12T03:44:40.854Z,11.8
2022-09-12T03:46:56.256Z,12.6
2022-09-12T03:49:11.697Z,11.9
2022-09-12T03:51:26.457Z,14.1
2022-09-12T03:53:41.201Z,11.8
2022-09-12T03:55:56.723Z,11.4
2022-09-12T03:58:11.863Z,12.9
2022-09-12T04:00:26.664Z,13.5
2022-09-12T04:02:42.210Z,13.6
2022-09-12T04:04:57.462Z,12.1
2022-09-12T04:07:12.664Z,12.5
2022-09-12T04:09:28.055Z,13.4
2022-09-12T04:11:43.033Z,12.8
2022-09-12T04:13:57.925Z,11.8
2022-09-12T04:16:13.604Z,11.5
2022-09-12T09:01:52.149Z,22.4
2022-09-12T09:04:06.815Z,22.7
2022-09-12T09:06:21.724Z,24.1
2022-09-12T09:08:36.595Z,23.8
2022-09-12T09:10:51.447Z,21.9
2022-09-12T09:13:06.302Z,21.8
2022-09-12T09:15:21.153Z,20.6
2022-09-12T09:17:36.010Z,21.4
2022-09-12T09:19:51.168Z,32.8
2022-09-12T09:22:06.312Z,36.4
2022-09-12T09:24:20.418Z,38.4
2022-09-12T09:26:35.902Z,37.3
2022-09-12T09:28:57.033Z,38.4
2022-09-12T09:31:12.342Z,40.6
2022-09-12T09:33:26.802Z,40.3
2022-09-12T09:35:41.639Z,41.6
2022-09-12T09:37:58.673Z,38.1
2022-09-12T09:40:11.502Z,38.4
2022-09-12T09:42:26.190Z,39.1
2022-09-12T09:44:40.956Z,37.7
2022-09-12T09:46:56.023Z,33.1
2022-09-12T09:49:11.116Z,31.6
2022-09-12T09:51:25.533Z,35.4
2022-09-12T09:53:40.335Z,31.4
2022-09-12T09:55:55.209Z,31.9
2022-09-12T09:58:10.047Z,35.4
2022-09-12T10:00:25.307Z,35.3
2022-09-12T10:02:39.809Z,34.6
2022-09-12T10:04:54.562Z,32.8
2022-09-12T10:07:09.421Z,31.5
2022-09-12T10:09:24.241Z,30.6
2022-09-12T10:11:41.505Z,29.5
2022-09-12T10:13:54.016Z,28.8
2022-09-12T10:16:08.860Z,28.1
2022-09-12T10:18:23.611Z,27.9
2022-09-12T10:20:50.241Z,27
2022-09-12T10:23:05.190Z,26.6
2022-09-12T10:25:19.957Z,26.6
2022-09-12T10:27:34.776Z,26.9
2022-09-12T10:29:49.698Z,25.2
2022-09-12T10:32:04.772Z,23.3
2022-09-12T10:34:19.566Z,22
2022-09-12T10:36:34.700Z,22.2
2022-09-12T10:38:49.557Z,21.9
2022-09-12T10:41:04.691Z,21.3
2022-09-12T10:43:19.584Z,21.7
2022-09-12T10:45:34.566Z,21.3
2022-09-12T10:47:49.472Z,21.6
2022-09-12T10:50:04.395Z,21.4
2022-09-12T10:52:19.379Z,21
2022-09-12T10:54:34.217Z,21.1
2022-09-12T10:56:49.318Z,21.6
2022-09-12T10:59:04.037Z,21.5
2022-09-12T11:01:19.171Z,21.4
2022-09-12T11:03:34.150Z,21.4
2022-09-12T11:05:49.100Z,21.8
2022-09-12T11:08:03.916Z,22.1
2022-09-12T11:10:19.168Z,22
2022-09-12T11:12:33.848Z,21.4
2022-09-12T11:14:48.688Z,20.6
2022-09-12T11:17:03.805Z,20.4
2022-09-12T11:19:18.811Z,20.4
2022-09-12T11:21:33.764Z,20.3
2022-09-12T11:23:48.664Z,20.3
2022-09-12T11:26:03.540Z,20.3
2022-09-12T11:28:18.415Z,20.1
2022-09-12T11:30:33.601Z,20.2
2022-09-12T11:32:48.304Z,20.1
2022-09-12T11:35:03.271Z,20.5
2022-09-12T11:37:18.432Z,20.8
2022-09-12T11:39:33.547Z,20.9
2022-09-12T11:41:48.476Z,23.1
2022-09-12T11:44:03.209Z,23.1
2022-09-12T11:46:18.485Z,22.5
2022-09-12T11:48:33.124Z,21.6
2022-09-12T11:50:48.244Z,22.1
2022-09-12T11:53:03.089Z,22.4
2022-09-12T11:55:18.351Z,22.6
2022-09-12T11:57:33.253Z,22.9
2022-09-12T11:59:47.399Z,22.5
2022-09-12T12:02:03.152Z,22.6
2022-09-12T12:04:18.055Z,20.9
2022-09-12T12:06:33.007Z,20.7
2022-09-12T12:08:48.198Z,20.8
2022-09-12T12:11:02.955Z,20.4
2022-09-12T12:13:17.772Z,20.1
2022-09-12T12:15:33.160Z,19.6
2022-09-12T12:17:47.857Z,23.6
2022-09-12T12:20:06.660Z,19.4
2022-09-12T12:22:17.742Z,18.8
2022-09-12T12:24:32.566Z,18.9
2022-09-12T12:26:47.576Z,18.6
2022-09-12T12:29:02.351Z,21.2
2022-09-12T12:31:17.596Z,18.9
2022-09-12T12:33:32.411Z,19.1
2022-09-12T12:35:47.459Z,20.1
2022-09-12T12:38:02.313Z,20.1
2022-09-12T12:40:17.355Z,20.2
2022-09-12T12:42:32.273Z,20.4
2022-09-12T12:44:47.127Z,19.8
2022-09-12T12:47:02.165Z,19.6
2022-09-12T12:49:16.954Z,19.9
2022-09-12T12:51:32.029Z,19.8
2022-09-12T12:53:46.954Z,19.9
2022-09-12T12:56:02.114Z,19.8
2022-09-12T12:58:16.863Z,19.3
2022-09-12T13:00:31.902Z,19.3
2022-09-12T13:02:46.767Z,19.5
2022-09-12T13:05:01.580Z,19.1
2022-09-12T13:07:16.644Z,19.1
2022-09-12T13:09:31.447Z,19.1
2022-09-12T13:14:01.344Z,17.8
2022-09-12T13:16:16.445Z,18.8
2022-09-12T13:18:31.428Z,18.3
2022-09-12T13:20:59.698Z,18.9
2022-09-12T13:23:14.594Z,18.5
2022-09-12T13:25:29.749Z,19
2022-09-12T13:27:44.924Z,18
2022-09-12T13:29:59.403Z,18.4
2022-09-12T13:32:14.354Z,18.2
2022-09-12T13:34:29.212Z,17.9
2022-09-12T13:36:44.375Z,17.4
2022-09-12T13:38:59.199Z,17.8
2022-09-12T13:41:14.238Z,18.1
2022-09-12T13:43:29.220Z,17.6
2022-09-12T13:45:44.258Z,17.8
2022-09-12T13:47:59.141Z,17.4
2022-09-12T13:50:13.836Z,17.7
2022-09-12T13:52:29.075Z,18.1
2022-09-12T13:54:43.767Z,17.8
2022-09-12T13:56:58.859Z,17.2
2022-09-12T13:59:13.774Z,18.1
2022-09-12T14:01:28.843Z,20.8
2022-09-12T14:03:43.710Z,18
2022-09-12T14:05:58.735Z,17.3
2022-09-12T14:08:14.070Z,17.5
2022-09-12T14:10:28.633Z,17.4
2022-09-12T14:12:43.634Z,16.9
2022-09-12T14:14:58.441Z,19.3
2022-09-12T14:19:28.978Z,18.6
2022-09-12T14:21:44.102Z,18.4
2022-09-12T14:23:59.010Z,18.4
2022-09-12T14:26:14.360Z,18.2
2022-09-12T14:28:29.888Z,17.7
2022-09-12T14:30:45.053Z,17.8
2022-09-12T14:33:00.262Z,17.6
2022-09-12T14:35:15.709Z,17.5
2022-09-12T14:37:30.023Z,17.6
2022-09-12T14:39:45.565Z,16.4
2022-09-12T14:42:01.301Z,16.4
2022-09-12T14:44:16.237Z,16.3
2022-09-12T14:48:47.342Z,17.9
2022-09-12T14:51:01.927Z,18.3
2022-09-12T14:53:17.668Z,16.9
2022-09-12T14:55:33.215Z,18.3
2022-09-12T14:57:48.412Z,17.3
2022-09-12T15:01:52.830Z,17.9
2022-09-12T15:04:08.032Z,16.7
2022-09-12T15:06:23.388Z,17.4
2022-09-12T15:08:38.977Z,17.8
2022-09-12T15:10:53.167Z,18.1
2022-09-12T15:13:09.019Z,17.9
2022-09-12T15:15:25.288Z,16.6
2022-09-12T15:17:39.507Z,16.6
2022-09-12T15:19:54.698Z,16.5
2022-09-12T15:22:10.021Z,16.7
2022-09-12T15:24:25.294Z,16.9
2022-09-12T15:26:40.575Z,16.7
2022-09-12T15:28:55.764Z,16.8
2022-09-12T15:31:11.068Z,16.6
2022-09-12T15:33:26.236Z,16.9
2022-09-12T15:35:41.885Z,16.3
2022-09-12T15:37:56.699Z,17.1
2022-09-12T15:40:12.026Z,16.8
2022-09-12T15:42:27.305Z,16.8
2022-09-12T15:44:42.480Z,16.8
2022-09-12T15:46:57.765Z,17.1
2022-09-12T15:49:12.888Z,17.1
2022-09-12T15:51:27.836Z,15.8
2022-09-12T15:53:42.938Z,17.4
2022-09-12T15:55:58.033Z,15.9
2022-09-12T15:58:13.313Z,16.4
2022-09-12T16:00:29.430Z,15.9
2022-09-12T16:02:45.165Z,15.9
2022-09-12T16:05:00.248Z,17.1
2022-09-12T16:07:15.378Z,15.7
2022-09-12T16:09:31.321Z,16.2
2022-09-12T16:11:45.795Z,17.2
2022-09-12T16:14:01.057Z,16.8
2022-09-12T16:16:16.026Z,15.8
2022-09-12T16:18:31.399Z,15.6
2022-09-12T16:20:46.618Z,16.6
2022-09-12T16:25:16.846Z,16.4
2022-09-12T16:27:31.814Z,15.3
2022-09-12T16:29:47.655Z,17.2
2022-09-12T16:34:17.167Z,15.8
2022-09-12T16:36:32.367Z,17.1
2022-09-12T16:38:47.559Z,16.8
2022-09-12T16:41:02.761Z,16.6
2022-09-12T16:43:17.897Z,16.5
2022-09-12T16:45:32.581Z,16.9
2022-09-12T16:47:48.419Z,16.5
2022-09-12T16:50:03.579Z,16.4
2022-09-12T16:52:18.800Z,15.8
2022-09-12T16:56:49.092Z,16.3
2022-09-12T16:59:04.454Z,15.9
2022-09-12T17:01:19.348Z,16.7
2022-09-12T17:03:35.125Z,16.8
2022-09-12T17:05:49.846Z,16.4
2022-09-12T17:08:04.948Z,16.4
2022-09-12T17:10:20.199Z,15
2022-09-12T17:12:35.154Z,15.5
2022-09-12T17:15:05.646Z,14.5
2022-09-12T17:17:20.852Z,15.9
2022-09-12T17:19:36.140Z,16.4
2022-09-12T17:21:51.402Z,16.1
2022-09-12T17:24:06.549Z,16.4
2022-09-12T17:26:21.773Z,16.5
2022-09-12T17:28:36.777Z,16.1
2022-09-12T17:30:51.945Z,14.6
2022-09-12T17:33:07.223Z,16.3
2022-09-12T17:35:22.343Z,15.6
2022-09-12T17:37:37.578Z,16.1
2022-09-12T17:39:52.813Z,15.9
2022-09-12T17:42:16.542Z,15.7
2022-09-12T17:44:31.825Z,16.5
2022-09-12T17:46:46.673Z,14.8
2022-09-12T17:49:01.377Z,15.5
2022-09-12T17:51:32.459Z,15.4
2022-09-12T17:53:47.750Z,14.3
2022-09-12T17:56:02.427Z,14.8
2022-09-12T17:58:17.786Z,16.1
2022-09-12T18:00:32.854Z,15.9
2022-09-12T18:02:47.930Z,14.1
2022-09-12T18:05:03.272Z,16.4
2022-09-12T18:07:18.545Z,15.5
2022-09-12T18:09:34.224Z,15.5
2022-09-12T18:11:49.004Z,15.9
2022-09-12T18:14:04.275Z,13.8
2022-09-12T18:16:19.321Z,14
2022-09-12T18:18:34.456Z,15.9
2022-09-12T18:20:50.037Z,15.4
2022-09-12T18:23:05.331Z,15.3
2022-09-12T18:25:20.598Z,15.4
2022-09-12T18:27:36.155Z,15.6
2022-09-12T18:30:04.434Z,14.9
2022-09-12T18:32:19.929Z,15.3
2022-09-12T18:34:35.204Z,15.8
2022-09-12T18:36:50.330Z,15.9
2022-09-12T18:39:05.634Z,15.2
2022-09-12T18:41:21.045Z,16.1
2022-09-12T18:43:36.247Z,14.9
2022-09-12T18:45:51.506Z,15.4
2022-09-12T18:48:06.784Z,15.1
2022-09-12T18:50:22.020Z,15.4
2022-09-12T18:52:36.887Z,15.5
2022-09-12T18:54:52.608Z,15.1
2022-09-12T18:57:07.744Z,15.3
2022-09-12T18:59:22.989Z,15.1
2022-09-12T19:01:38.098Z,15.6
2022-09-12T19:03:53.197Z,13.9
2022-09-12T19:06:08.550Z,15.8
2022-09-12T19:08:23.833Z,14.2
2022-09-12T19:10:39.117Z,15.3
2022-09-12T19:12:54.456Z,14.8
2022-09-12T19:15:09.756Z,15.7
2022-09-12T19:17:24.731Z,15.6
2022-09-12T19:19:40.636Z,13.7
2022-09-12T19:21:55.146Z,15.6
2022-09-12T19:24:11.195Z,15.2
2022-09-12T19:26:25.861Z,15
2022-09-12T19:28:41.092Z,15.3
2022-09-12T19:30:56.382Z,15.3
2022-09-12T19:33:11.752Z,14.9
2022-09-12T19:35:26.619Z,15.4
2022-09-12T19:37:59.351Z,15.6
2022-09-12T19:40:13.572Z,16.3
2022-09-12T19:42:29.324Z,15.6
2022-09-12T19:44:44.585Z,15.7
2022-09-12T19:46:59.957Z,15.3
2022-09-12T19:49:15.457Z,16.2
2022-09-12T19:51:30.251Z,14.3
2022-09-12T19:53:45.495Z,15.8
2022-09-12T19:56:00.847Z,15.3
2022-09-12T19:58:16.056Z,14.6
2022-09-12T20:00:31.607Z,15.4
2022-09-12T20:02:46.719Z,15.1
2022-09-12T20:05:02.025Z,15.4
2022-09-12T20:07:17.472Z,15.5
2022-09-12T20:09:32.642Z,15.4
2022-09-12T20:11:47.642Z,15
2022-09-12T20:14:02.909Z,13.4
2022-09-12T20:16:21.567Z,15.6
2022-09-12T20:18:33.251Z,15.5
2022-09-12T20:20:48.680Z,13.5
2022-09-12T20:23:03.870Z,15.1
2022-09-12T20:25:19.280Z,15.1
2022-09-12T20:27:34.620Z,15.1
2022-09-12T20:29:50.025Z,15.1
2022-09-12T20:32:05.294Z,15.1
2022-09-12T20:34:20.681Z,15.4
2022-09-12T20:36:35.965Z,14.6
2022-09-12T20:38:51.222Z,15.4
2022-09-12T20:41:06.561Z,14.8
2022-09-12T20:43:21.934Z,14.6
2022-09-12T20:45:37.248Z,14.9
2022-09-12T20:47:52.612Z,14.4
2022-09-12T20:50:07.929Z,14.6
2022-09-12T20:52:23.424Z,14.9
2022-09-12T20:54:38.614Z,14.8
2022-09-12T20:56:54.042Z,14.9
2022-09-12T20:59:09.147Z,14.4
2022-09-12T21:01:52.767Z,13
2022-09-12T21:04:09.015Z,13.1
2022-09-12T21:06:22.398Z,13
2022-09-12T21:08:37.646Z,12.9
2022-09-12T21:10:53.308Z,14.7
2022-09-12T21:13:08.718Z,13.9
2022-09-12T21:15:24.201Z,13.9
2022-09-12T21:17:39.240Z,15.2
2022-09-12T21:19:54.623Z,13.1
2022-09-12T21:22:09.529Z,14.3
2022-09-12T21:24:24.913Z,13.2
2022-09-12T21:26:40.529Z,14.9
2022-09-12T21:28:56.023Z,13.8
2022-09-12T21:31:12.459Z,14.6
2022-09-12T21:33:26.926Z,14.3
2022-09-12T21:35:42.338Z,13.9
2022-09-12T21:37:57.785Z,14
2022-09-12T21:40:12.851Z,15.4
2022-09-12T21:42:28.227Z,12.7
2022-09-12T21:44:43.648Z,14.3
2022-09-12T21:46:59.673Z,14.5
2022-09-12T21:49:14.831Z,14.9
2022-09-12T21:51:30.291Z,15.3
2022-09-12T21:53:45.524Z,14.4
2022-09-12T21:56:01.003Z,13.5
2022-09-12T21:58:16.006Z,14
2022-09-12T22:00:30.789Z,12.3
2022-09-12T22:02:46.274Z,12
2022-09-12T22:05:01.848Z,14.4
2022-09-12T22:07:17.016Z,13.9
2022-09-12T22:09:32.395Z,11.9
2022-09-12T22:11:48.628Z,14.7
2022-09-12T22:14:03.695Z,13.8
2022-09-12T22:16:33.597Z,13.7
2022-09-12T22:18:49.290Z,13.5
2022-09-12T22:21:04.570Z,13.9
2022-09-12T22:23:23.932Z,13.9
2022-09-12T22:25:35.695Z,14
2022-09-12T22:27:51.095Z,13.3
2022-09-12T22:30:06.626Z,14.1
2022-09-12T22:32:20.972Z,12.5
2022-09-12T22:34:35.836Z,12.4
2022-09-12T22:36:51.982Z,12.7
2022-09-12T22:39:07.237Z,14.3
2022-09-12T22:41:22.810Z,14
2022-09-12T22:43:38.398Z,14.1
2022-09-12T22:45:53.682Z,14.1
2022-09-12T22:48:09.390Z,11.8
2022-09-12T22:50:23.022Z,12.9
2022-09-12T22:52:39.364Z,12.4
2022-09-12T22:54:55.165Z,13.9
2022-09-12T22:57:10.645Z,14.2
2022-09-12T22:59:26.247Z,11.6
2022-09-12T23:01:42.071Z,13.6
2022-09-12T23:03:57.742Z,14.5
2022-09-12T23:06:13.545Z,13.8
2022-09-12T23:08:29.043Z,13.6
2022-09-12T23:10:44.961Z,13.5
2022-09-12T23:13:00.521Z,13.8
2022-09-12T23:15:16.027Z,13.6
2022-09-12T23:17:33.220Z,13.8
2022-09-12T23:19:47.527Z,13.2
2022-09-12T23:22:03.403Z,13.8
2022-09-12T23:24:18.866Z,13.4
2022-09-12T23:26:34.702Z,13.5
2022-09-12T23:28:50.383Z,13.1
2022-09-12T23:31:06.178Z,13.6
2022-09-12T23:33:21.823Z,13.7
2022-09-12T23:35:37.440Z,13.5
2022-09-12T23:37:53.212Z,13.3
2022-09-12T23:40:08.430Z,12.9
2022-09-12T23:42:24.153Z,11.4
2022-09-12T23:44:39.865Z,13.6
2022-09-12T23:46:55.912Z,13.8
2022-09-12T23:49:11.072Z,13.4
2022-09-12T23:51:26.130Z,11.2
2022-09-12T23:53:41.830Z,11.1
2022-09-12T23:55:58.032Z,13.9
2022-09-12T23:58:13.241Z,13.8
